sensor_id;sensor_type;location;lat;lon;timestamp;pressure;altitude;pressure_sealevel;temperature;humidity
71917;BME280;59793;46.506;6.674;2023-04-29T00:00:21;96999.75;;;16.18;86.56
71917;BME280;59793;46.506;6.674;2023-04-29T00:02:46;96989.84;;;16.05;86.93
71917;BME280;59793;46.506;6.674;2023-04-29T00:05:11;96958.72;;;15.91;86.74
71917;BME280;59793;46.506;6.674;2023-04-29T00:07:37;96983.41;;;16.06;87.30
71917;BME280;59793;46.506;6.674;2023-04-29T00:10:03;96979.25;;;16.12;87.13
71917;BME280;59793;46.506;6.674;2023-04-29T00:12:29;96953.00;;;16.03;86.78
71917;BME280;59793;46.506;6.674;2023-04-29T00:14:56;96962.53;;;16.25;86.81
71917;BME280;59793;46.506;6.674;2023-04-29T00:17:21;96965.94;;;16.44;86.70
71917;BME280;59793;46.506;6.674;2023-04-29T00:19:47;96951.91;;;16.40;86.84
71917;BME280;59793;46.506;6.674;2023-04-29T00:22:12;96967.84;;;16.54;86.50
71917;BME280;59793;46.506;6.674;2023-04-29T00:24:38;96957.97;;;16.62;85.46
71917;BME280;59793;46.506;6.674;2023-04-29T00:27:03;96963.25;;;16.72;85.24
71917;BME280;59793;46.506;6.674;2023-04-29T00:29:29;96965.94;;;16.72;84.77
71917;BME280;59793;46.506;6.674;2023-04-29T00:31:55;96954.91;;;16.53;85.31
71917;BME280;59793;46.506;6.674;2023-04-29T00:34:20;96950.38;;;16.35;85.85
71917;BME280;59793;46.506;6.674;2023-04-29T00:36:45;96968.63;;;16.44;86.15
71917;BME280;59793;46.506;6.674;2023-04-29T00:39:11;96978.84;;;16.49;86.27
71917;BME280;59793;46.506;6.674;2023-04-29T00:41:38;96980.75;;;16.16;87.69
71917;BME280;59793;46.506;6.674;2023-04-29T00:44:03;96985.69;;;16.14;88.14
71917;BME280;59793;46.506;6.674;2023-04-29T00:46:29;96942.75;;;15.84;88.77
71917;BME280;59793;46.506;6.674;2023-04-29T00:48:54;96969.34;;;16.09;89.27
71917;BME280;59793;46.506;6.674;2023-04-29T00:51:20;96977.69;;;16.04;90.09
71917;BME280;59793;46.506;6.674;2023-04-29T00:53:46;96968.59;;;15.94;90.24
71917;BME280;59793;46.506;6.674;2023-04-29T00:56:11;96972.00;;;15.91;90.95
71917;BME280;59793;46.506;6.674;2023-04-29T00:58:39;96960.19;;;15.70;91.49
71917;BME280;59793;46.506;6.674;2023-04-29T01:01:04;96979.94;;;15.84;91.30
71917;BME280;59793;46.506;6.674;2023-04-29T01:03:30;96971.56;;;15.74;91.73
71917;BME280;59793;46.506;6.674;2023-04-29T01:06:19;96953.72;;;15.71;91.17
71917;BME280;59793;46.506;6.674;2023-04-29T01:09:21;96963.63;;;15.85;90.38
71917;BME280;59793;46.506;6.674;2023-04-29T01:15:28;96978.44;;;15.93;90.63
71917;BME280;59793;46.506;6.674;2023-04-29T01:18:19;96979.56;;;15.82;90.50
71917;BME280;59793;46.506;6.674;2023-04-29T01:20:43;96958.56;;;15.41;91.08
71917;BME280;59793;46.506;6.674;2023-04-29T01:23:10;96991.22;;;15.59;90.82
71917;BME280;59793;46.506;6.674;2023-04-29T01:25:35;97003.78;;;15.62;90.51
71917;BME280;59793;46.506;6.674;2023-04-29T01:30:55;97008.03;;;15.85;89.99
71917;BME280;59793;46.506;6.674;2023-04-29T01:36:32;97008.78;;;15.82;91.46
71917;BME280;59793;46.506;6.674;2023-04-29T01:41:43;97017.16;;;15.84;92.15
71917;BME280;59793;46.506;6.674;2023-04-29T01:44:19;97023.25;;;15.98;91.49
71917;BME280;59793;46.506;6.674;2023-04-29T01:46:49;97028.91;;;15.97;91.65
71917;BME280;59793;46.506;6.674;2023-04-29T01:49:19;97015.25;;;15.84;91.07
71917;BME280;59793;46.506;6.674;2023-04-29T01:51:44;97020.88;;;15.68;91.08
71917;BME280;59793;46.506;6.674;2023-04-29T01:54:10;97006.88;;;15.78;89.75
71917;BME280;59793;46.506;6.674;2023-04-29T01:56:35;96993.22;;;15.73;90.83
71917;BME280;59793;46.506;6.674;2023-04-29T01:59:01;97008.81;;;15.92;90.25
71917;BME280;59793;46.506;6.674;2023-04-29T02:01:26;97011.13;;;16.08;89.46
71917;BME280;59793;46.506;6.674;2023-04-29T02:03:51;97003.50;;;15.99;90.52
71917;BME280;59793;46.506;6.674;2023-04-29T02:06:17;97000.50;;;16.05;89.87
71917;BME280;59793;46.506;6.674;2023-04-29T02:08:42;97004.28;;;16.07;89.47
71917;BME280;59793;46.506;6.674;2023-04-29T02:11:08;96975.75;;;15.90;88.72
71917;BME280;59793;46.506;6.674;2023-04-29T02:13:33;96977.66;;;15.93;88.03
71917;BME280;59793;46.506;6.674;2023-04-29T02:16:09;96987.56;;;16.10;88.00
71917;BME280;59793;46.506;6.674;2023-04-29T02:18:34;96974.66;;;15.98;88.94
71917;BME280;59793;46.506;6.674;2023-04-29T02:21:00;96945.41;;;15.80;89.70
71917;BME280;59793;46.506;6.674;2023-04-29T02:23:28;96948.09;;;15.91;90.10
71917;BME280;59793;46.506;6.674;2023-04-29T02:25:54;96963.28;;;15.97;89.73
71917;BME280;59793;46.506;6.674;2023-04-29T02:28:19;96980.75;;;16.16;89.52
71917;BME280;59793;46.506;6.674;2023-04-29T02:30:45;96964.81;;;16.13;88.79
71917;BME280;59793;46.506;6.674;2023-04-29T02:33:10;96976.59;;;16.15;88.63
71917;BME280;59793;46.506;6.674;2023-04-29T02:35:36;96956.06;;;16.01;88.77
71917;BME280;59793;46.506;6.674;2023-04-29T02:38:01;96971.63;;;16.10;89.12
71917;BME280;59793;46.506;6.674;2023-04-29T02:40:26;96928.31;;;15.81;88.97
71917;BME280;59793;46.506;6.674;2023-04-29T02:42:52;96937.81;;;15.82;89.59
71917;BME280;59793;46.506;6.674;2023-04-29T02:45:17;96961.38;;;16.01;89.76
71917;BME280;59793;46.506;6.674;2023-04-29T02:47:43;96951.47;;;15.81;90.73
71917;BME280;59793;46.506;6.674;2023-04-29T02:50:08;96977.69;;;16.00;90.11
71917;BME280;59793;46.506;6.674;2023-04-29T02:52:34;96975.41;;;15.88;90.02
71917;BME280;59793;46.506;6.674;2023-04-29T02:54:59;96978.84;;;15.99;89.77
71917;BME280;59793;46.506;6.674;2023-04-29T02:57:24;96987.56;;;16.10;89.18
71917;BME280;59793;46.506;6.674;2023-04-29T02:59:50;96968.97;;;16.07;88.57
71917;BME280;59793;46.506;6.674;2023-04-29T03:02:15;96924.91;;;15.73;87.98
71917;BME280;59793;46.506;6.674;2023-04-29T03:04:41;96978.84;;;16.13;87.34
71917;BME280;59793;46.506;6.674;2023-04-29T03:07:07;96951.09;;;15.78;87.01
71917;BME280;59793;46.506;6.674;2023-04-29T03:09:32;96975.75;;;15.79;87.67
71917;BME280;59793;46.506;6.674;2023-04-29T03:11:58;96974.22;;;15.74;87.55
71917;BME280;59793;46.506;6.674;2023-04-29T03:14:23;96956.72;;;15.59;88.00
71917;BME280;59793;46.506;6.674;2023-04-29T03:16:49;96920.25;;;15.42;87.75
71917;BME280;59793;46.506;6.674;2023-04-29T03:19:14;96982.97;;;15.86;87.94
71917;BME280;59793;46.506;6.674;2023-04-29T03:21:41;96981.47;;;15.92;87.18
71917;BME280;59793;46.506;6.674;2023-04-29T03:24:06;96997.44;;;15.99;87.50
71917;BME280;59793;46.506;6.674;2023-04-29T03:26:31;96998.97;;;16.11;86.31
71917;BME280;59793;46.506;6.674;2023-04-29T03:28:57;96984.16;;;15.99;86.70
71917;BME280;59793;46.506;6.674;2023-04-29T03:31:23;96997.44;;;16.10;86.72
71917;BME280;59793;46.506;6.674;2023-04-29T03:33:49;96991.38;;;16.09;86.67
71917;BME280;59793;46.506;6.674;2023-04-29T03:36:17;96997.06;;;16.08;86.72
71917;BME280;59793;46.506;6.674;2023-04-29T03:38:43;97001.25;;;16.05;86.50
71917;BME280;59793;46.506;6.674;2023-04-29T03:41:08;96955.63;;;15.71;86.26
71917;BME280;59793;46.506;6.674;2023-04-29T03:43:33;96990.19;;;15.82;87.80
71917;BME280;59793;46.506;6.674;2023-04-29T03:45:59;97001.97;;;15.88;87.80
71917;BME280;59793;46.506;6.674;2023-04-29T03:48:24;96973.09;;;15.86;87.45
71917;BME280;59793;46.506;6.674;2023-04-29T03:50:50;96978.06;;;15.91;87.30
71917;BME280;59793;46.506;6.674;2023-04-29T03:53:15;96994.75;;;15.92;87.88
71917;BME280;59793;46.506;6.674;2023-04-29T03:55:41;96986.03;;;15.88;88.32
71917;BME280;59793;46.506;6.674;2023-04-29T03:58:07;96982.22;;;15.92;88.22
71917;BME280;59793;46.506;6.674;2023-04-29T04:00:32;96947.22;;;15.65;88.31
71917;BME280;59793;46.506;6.674;2023-04-29T04:02:58;96972.34;;;15.82;89.04
71917;BME280;59793;46.506;6.674;2023-04-29T04:05:24;96981.09;;;15.97;87.93
71917;BME280;59793;46.506;6.674;2023-04-29T04:07:50;96940.47;;;15.78;87.25
71917;BME280;59793;46.506;6.674;2023-04-29T04:10:17;96960.19;;;15.77;88.12
71917;BME280;59793;46.506;6.674;2023-04-29T04:12:42;96932.81;;;15.63;88.91
71917;BME280;59793;46.506;6.674;2023-04-29T04:15:08;96980.72;;;15.91;88.82
71917;BME280;59793;46.506;6.674;2023-04-29T04:17:33;96994.38;;;16.00;88.21
71917;BME280;59793;46.506;6.674;2023-04-29T04:19:59;96994.03;;;16.02;87.41
71917;BME280;59793;46.506;6.674;2023-04-29T04:22:24;96967.03;;;15.93;87.26
71917;BME280;59793;46.506;6.674;2023-04-29T04:24:49;96990.97;;;16.00;86.96
71917;BME280;59793;46.506;6.674;2023-04-29T04:27:15;96994.41;;;16.08;86.94
71917;BME280;59793;46.506;6.674;2023-04-29T04:29:40;96977.69;;;16.00;86.51
71917;BME280;59793;46.506;6.674;2023-04-29T04:32:06;96998.19;;;16.03;86.37
71917;BME280;59793;46.506;6.674;2023-04-29T04:34:32;96983.75;;;15.90;86.13
71917;BME280;59793;46.506;6.674;2023-04-29T04:36:57;96963.13;;;15.54;87.32
71917;BME280;59793;46.506;6.674;2023-04-29T04:39:23;97007.94;;;15.63;87.25
71917;BME280;59793;46.506;6.674;2023-04-29T04:41:48;96988.09;;;15.36;88.06
71917;BME280;59793;46.506;6.674;2023-04-29T04:44:13;96989.53;;;15.19;88.90
71917;BME280;59793;46.506;6.674;2023-04-29T04:46:39;97006.22;;;15.19;89.74
71917;BME280;59793;46.506;6.674;2023-04-29T04:49:04;97014.94;;;15.16;90.32
71917;BME280;59793;46.506;6.674;2023-04-29T04:51:30;96969.22;;;14.78;90.68
71917;BME280;59793;46.506;6.674;2023-04-29T04:53:55;97000.06;;;15.01;90.99
71917;BME280;59793;46.506;6.674;2023-04-29T04:56:20;97012.94;;;14.95;92.10
71917;BME280;59793;46.506;6.674;2023-04-29T04:58:46;97017.06;;;14.93;93.06
71917;BME280;59793;46.506;6.674;2023-04-29T05:01:12;97013.00;;;15.10;91.37
71917;BME280;59793;46.506;6.674;2023-04-29T05:03:37;97019.88;;;15.21;90.96
71917;BME280;59793;46.506;6.674;2023-04-29T05:06:02;97011.53;;;15.23;91.08
71917;BME280;59793;46.506;6.674;2023-04-29T05:08:28;97018.78;;;15.29;90.42
71917;BME280;59793;46.506;6.674;2023-04-29T05:10:54;97010.00;;;15.15;90.56
71917;BME280;59793;46.506;6.674;2023-04-29T05:13:20;97013.84;;;15.24;90.84
71917;BME280;59793;46.506;6.674;2023-04-29T05:15:45;97022.56;;;15.25;91.34
71917;BME280;59793;46.506;6.674;2023-04-29T05:18:11;96998.22;;;15.16;91.36
71917;BME280;59793;46.506;6.674;2023-04-29T05:20:36;97011.59;;;15.26;90.96
71917;BME280;59793;46.506;6.674;2023-04-29T05:23:02;97020.34;;;15.38;90.68
71917;BME280;59793;46.506;6.674;2023-04-29T05:25:28;96999.09;;;15.30;90.22
71917;BME280;59793;46.506;6.674;2023-04-29T05:27:54;97014.69;;;15.43;89.88
71917;BME280;59793;46.506;6.674;2023-04-29T05:30:20;97018.13;;;15.54;90.02
71917;BME280;59793;46.506;6.674;2023-04-29T05:32:46;97020.81;;;15.65;88.94
71917;BME280;59793;46.506;6.674;2023-04-29T05:35:13;97001.03;;;15.44;89.32
71917;BME280;59793;46.506;6.674;2023-04-29T05:37:38;97028.41;;;15.56;89.02
71917;BME280;59793;46.506;6.674;2023-04-29T05:40:04;97010.94;;;15.58;88.84
71917;BME280;59793;46.506;6.674;2023-04-29T05:42:29;96993.84;;;15.45;88.88
71917;BME280;59793;46.506;6.674;2023-04-29T05:44:55;97024.72;;;15.78;88.28
71917;BME280;59793;46.506;6.674;2023-04-29T05:47:20;97030.03;;;15.82;88.03
71917;BME280;59793;46.506;6.674;2023-04-29T05:49:46;97006.38;;;15.48;88.92
71917;BME280;59793;46.506;6.674;2023-04-29T05:52:12;97000.25;;;15.40;89.81
71917;BME280;59793;46.506;6.674;2023-04-29T05:54:37;97040.56;;;15.60;90.57
71917;BME280;59793;46.506;6.674;2023-04-29T05:57:03;97041.31;;;15.61;91.12
71917;BME280;59793;46.506;6.674;2023-04-29T05:59:29;97039.88;;;15.70;90.94
71917;BME280;59793;46.506;6.674;2023-04-29T06:01:58;97036.84;;;15.75;90.62
71917;BME280;59793;46.506;6.674;2023-04-29T06:04:24;97048.63;;;15.85;89.97
71917;BME280;59793;46.506;6.674;2023-04-29T06:06:53;97065.00;;;15.98;89.62
71917;BME280;59793;46.506;6.674;2023-04-29T06:09:20;97059.69;;;15.98;89.65
71917;BME280;59793;46.506;6.674;2023-04-29T06:11:46;97024.69;;;15.71;89.68
71917;BME280;59793;46.506;6.674;2023-04-29T06:14:12;97066.53;;;15.99;89.86
71917;BME280;59793;46.506;6.674;2023-04-29T06:16:38;97030.44;;;15.84;89.34
71917;BME280;59793;46.506;6.674;2023-04-29T06:19:04;97066.16;;;16.08;89.37
71917;BME280;59793;46.506;6.674;2023-04-29T06:21:29;97066.16;;;16.04;89.27
71917;BME280;59793;46.506;6.674;2023-04-29T06:23:56;97036.09;;;15.86;89.21
71917;BME280;59793;46.506;6.674;2023-04-29T06:26:22;97052.06;;;15.86;89.57
71917;BME280;59793;46.506;6.674;2023-04-29T06:28:47;97076.78;;;16.04;89.00
71917;BME280;59793;46.506;6.674;2023-04-29T06:31:12;97083.28;;;16.17;88.11
71917;BME280;59793;46.506;6.674;2023-04-29T06:33:38;97056.69;;;16.14;87.80
71917;BME280;59793;46.506;6.674;2023-04-29T06:36:04;97075.31;;;16.32;87.33
71917;BME280;59793;46.506;6.674;2023-04-29T06:38:29;97075.72;;;16.34;87.67
71917;BME280;59793;46.506;6.674;2023-04-29T06:40:55;97081.41;;;16.36;88.03
71917;BME280;59793;46.506;6.674;2023-04-29T06:43:25;97044.53;;;16.13;87.73
71917;BME280;59793;46.506;6.674;2023-04-29T06:45:50;97088.56;;;16.14;88.15
71917;BME280;59793;46.506;6.674;2023-04-29T06:48:16;97058.94;;;15.94;87.78
71917;BME280;59793;46.506;6.674;2023-04-29T06:50:53;97079.09;;;16.16;87.68
71917;BME280;59793;46.506;6.674;2023-04-29T06:53:18;97085.56;;;16.15;87.18
71917;BME280;59793;46.506;6.674;2023-04-29T06:55:45;97069.19;;;16.06;87.13
71917;BME280;59793;46.506;6.674;2023-04-29T06:58:13;97082.91;;;16.22;86.61
71917;BME280;59793;46.506;6.674;2023-04-29T07:00:39;97091.28;;;16.28;86.13
71917;BME280;59793;46.506;6.674;2023-04-29T07:03:05;97074.19;;;16.25;86.14
71917;BME280;59793;46.506;6.674;2023-04-29T07:05:31;97039.97;;;16.13;84.58
71917;BME280;59793;46.506;6.674;2023-04-29T07:07:57;97058.59;;;16.17;85.55
71917;BME280;59793;46.506;6.674;2023-04-29T07:10:22;97077.22;;;16.35;85.53
71917;BME280;59793;46.506;6.674;2023-04-29T07:12:49;97085.63;;;16.40;85.01
71917;BME280;59793;46.506;6.674;2023-04-29T07:15:14;97093.19;;;16.31;84.07
71917;BME280;59793;46.506;6.674;2023-04-29T07:17:40;97057.44;;;16.11;83.49
71917;BME280;59793;46.506;6.674;2023-04-29T07:20:06;97099.25;;;16.32;83.86
71917;BME280;59793;46.506;6.674;2023-04-29T07:22:31;97075.25;;;15.99;83.78
71917;BME280;59793;46.506;6.674;2023-04-29T07:24:57;97100.66;;;15.93;85.03
71917;BME280;59793;46.506;6.674;2023-04-29T07:27:22;97118.94;;;16.02;85.33
71917;BME280;59793;46.506;6.674;2023-04-29T07:29:48;97095.72;;;15.92;85.29
71917;BME280;59793;46.506;6.674;2023-04-29T07:32:14;97119.28;;;16.04;86.18
71917;BME280;59793;46.506;6.674;2023-04-29T07:34:40;97120.09;;;16.12;86.03
71917;BME280;59793;46.506;6.674;2023-04-29T07:37:05;97115.16;;;16.10;85.34
71917;BME280;59793;46.506;6.674;2023-04-29T07:39:30;97086.56;;;15.82;85.00
71917;BME280;59793;46.506;6.674;2023-04-29T07:41:56;97114.75;;;15.97;86.29
71917;BME280;59793;46.506;6.674;2023-04-29T07:44:21;97089.22;;;15.78;86.92
71917;BME280;59793;46.506;6.674;2023-04-29T07:46:47;97115.81;;;15.89;85.96
71917;BME280;59793;46.506;6.674;2023-04-29T07:49:12;97124.91;;;15.77;85.54
71917;BME280;59793;46.506;6.674;2023-04-29T07:51:41;97113.47;;;15.70;86.22
71917;BME280;59793;46.506;6.674;2023-04-29T07:54:08;97123.38;;;15.76;86.47
71917;BME280;59793;46.506;6.674;2023-04-29T07:56:33;97127.16;;;15.79;86.53
71917;BME280;59793;46.506;6.674;2023-04-29T07:58:59;97115.78;;;15.78;86.32
71917;BME280;59793;46.506;6.674;2023-04-29T08:01:25;97075.06;;;15.60;86.07
71917;BME280;59793;46.506;6.674;2023-04-29T08:03:50;97119.63;;;15.85;86.16
71917;BME280;59793;46.506;6.674;2023-04-29T08:06:16;97103.59;;;15.70;85.78
71917;BME280;59793;46.506;6.674;2023-04-29T08:08:45;97120.38;;;15.89;85.86
71917;BME280;59793;46.506;6.674;2023-04-29T08:11:17;97113.56;;;15.91;86.11
71917;BME280;59793;46.506;6.674;2023-04-29T08:13:43;97112.09;;;16.01;86.58
71917;BME280;59793;46.506;6.674;2023-04-29T08:16:08;97094.59;;;16.00;85.86
71917;BME280;59793;46.506;6.674;2023-04-29T08:18:34;97086.25;;;15.94;85.86
71917;BME280;59793;46.506;6.674;2023-04-29T08:21:01;97061.19;;;15.92;85.16
71917;BME280;59793;46.506;6.674;2023-04-29T08:23:26;97106.84;;;16.26;85.45
71917;BME280;59793;46.506;6.674;2023-04-29T08:25:51;97100.03;;;16.36;85.44
71917;BME280;59793;46.506;6.674;2023-04-29T08:28:17;97081.81;;;16.38;82.97
71917;BME280;59793;46.506;6.674;2023-04-29T08:30:43;97097.78;;;16.73;83.06
71917;BME280;59793;46.506;6.674;2023-04-29T08:33:08;97078.41;;;16.59;83.44
71917;BME280;59793;46.506;6.674;2023-04-29T08:35:34;97108.47;;;17.02;82.44
71917;BME280;59793;46.506;6.674;2023-04-29T08:38:02;97086.06;;;17.03;82.25
71917;BME280;59793;46.506;6.674;2023-04-29T08:40:29;97107.66;;;17.37;81.56
71917;BME280;59793;46.506;6.674;2023-04-29T08:42:56;97105.38;;;17.50;79.33
71917;BME280;59793;46.506;6.674;2023-04-29T08:45:23;97108.41;;;17.41;78.74
71917;BME280;59793;46.506;6.674;2023-04-29T08:47:49;97101.59;;;17.26;78.58
71917;BME280;59793;46.506;6.674;2023-04-29T08:50:15;97103.91;;;17.10;79.99
71917;BME280;59793;46.506;6.674;2023-04-29T08:52:42;97106.94;;;17.08;80.30
71917;BME280;59793;46.506;6.674;2023-04-29T08:55:07;97095.53;;;17.11;80.15
71917;BME280;59793;46.506;6.674;2023-04-29T08:57:36;97102.34;;;17.30;80.34
71917;BME280;59793;46.506;6.674;2023-04-29T09:00:05;97103.13;;;17.31;79.16
71917;BME280;59793;46.506;6.674;2023-04-29T09:02:32;97077.28;;;17.06;79.52
71917;BME280;59793;46.506;6.674;2023-04-29T09:04:59;97110.75;;;17.22;77.86
71917;BME280;59793;46.506;6.674;2023-04-29T09:07:30;97113.78;;;17.20;78.27
71917;BME280;59793;46.506;6.674;2023-04-29T09:09:56;97077.66;;;17.08;78.20
71917;BME280;59793;46.506;6.674;2023-04-29T09:12:23;97096.28;;;17.30;77.17
71917;BME280;59793;46.506;6.674;2023-04-29T09:14:48;97092.88;;;17.26;76.59
71917;BME280;59793;46.506;6.674;2023-04-29T09:17:14;97101.59;;;17.30;76.68
71917;BME280;59793;46.506;6.674;2023-04-29T09:19:40;97087.19;;;17.02;76.95
71917;BME280;59793;46.506;6.674;2023-04-29T09:22:06;97104.66;;;17.25;75.49
71917;BME280;59793;46.506;6.674;2023-04-29T09:24:32;97098.19;;;17.18;76.24
71917;BME280;59793;46.506;6.674;2023-04-29T09:26:58;97104.66;;;17.35;75.89
71917;BME280;59793;46.506;6.674;2023-04-29T09:29:24;97119.44;;;17.47;75.16
71917;BME280;59793;46.506;6.674;2023-04-29T09:31:50;97106.88;;;17.51;75.55
71917;BME280;59793;46.506;6.674;2023-04-29T09:34:30;97076.88;;;17.33;76.13
71917;BME280;59793;46.506;6.674;2023-04-29T09:36:55;97106.09;;;17.61;76.06
71917;BME280;59793;46.506;6.674;2023-04-29T09:39:23;97115.94;;;17.86;74.22
71917;BME280;59793;46.506;6.674;2023-04-29T09:44:22;97111.03;;;17.63;73.58
71917;BME280;59793;46.506;6.674;2023-04-29T09:47:04;97109.56;;;17.37;73.90
71917;BME280;59793;46.506;6.674;2023-04-29T09:49:34;97074.59;;;17.13;75.43
71917;BME280;59793;46.506;6.674;2023-04-29T09:52:03;97111.47;;;17.43;74.26
71917;BME280;59793;46.506;6.674;2023-04-29T09:54:30;97096.66;;;17.28;74.57
71917;BME280;59793;46.506;6.674;2023-04-29T09:56:57;97118.31;;;17.48;74.68
71917;BME280;59793;46.506;6.674;2023-04-29T09:59:24;97112.22;;;17.48;73.25
71917;BME280;59793;46.506;6.674;2023-04-29T10:01:51;97113.72;;;17.52;72.89
71917;BME280;59793;46.506;6.674;2023-04-29T10:04:18;97120.19;;;17.51;71.77
71917;BME280;59793;46.506;6.674;2023-04-29T10:06:45;97105.34;;;17.64;72.59
71917;BME280;59793;46.506;6.674;2023-04-29T10:09:14;97095.41;;;17.79;72.28
71917;BME280;59793;46.506;6.674;2023-04-29T10:11:44;97096.84;;;17.98;72.51
71917;BME280;59793;46.506;6.674;2023-04-29T10:14:14;97092.66;;;17.97;72.29
71917;BME280;59793;46.506;6.674;2023-04-29T10:20:03;97098.66;;;18.15;71.50
71917;BME280;59793;46.506;6.674;2023-04-29T10:22:33;97103.59;;;18.24;70.11
71917;BME280;59793;46.506;6.674;2023-04-29T10:25:00;97100.44;;;18.40;70.20
71917;BME280;59793;46.506;6.674;2023-04-29T10:27:28;97096.69;;;18.34;69.52
71917;BME280;59793;46.506;6.674;2023-04-29T10:29:57;97051.78;;;18.22;68.74
71917;BME280;59793;46.506;6.674;2023-04-29T10:32:25;97075.94;;;18.59;68.97
71917;BME280;59793;46.506;6.674;2023-04-29T10:34:53;97087.13;;;18.96;67.88
71917;BME280;59793;46.506;6.674;2023-04-29T10:37:20;97097.03;;;18.95;66.32
71917;BME280;59793;46.506;6.674;2023-04-29T10:39:54;97088.28;;;18.95;67.91
71917;BME280;59793;46.506;6.674;2023-04-29T10:53:11;97089.81;;;18.33;69.31
71917;BME280;59793;46.506;6.674;2023-04-29T10:55:37;97085.75;;;18.77;67.03
71917;BME280;59793;46.506;6.674;2023-04-29T10:58:04;97094.22;;;19.13;66.89
71917;BME280;59793;46.506;6.674;2023-04-29T11:00:31;97093.38;;;19.20;67.40
71917;BME280;59793;46.506;6.674;2023-04-29T11:03:01;97086.31;;;19.40;67.19
71917;BME280;59793;46.506;6.674;2023-04-29T11:08:18;97075.59;;;19.78;65.70
71917;BME280;59793;46.506;6.674;2023-04-29T11:10:51;97076.19;;;20.23;65.01
71917;BME280;59793;46.506;6.674;2023-04-29T11:13:23;97071.25;;;20.22;63.82
71917;BME280;59793;46.506;6.674;2023-04-29T11:16:02;97075.44;;;20.23;64.45
71917;BME280;59793;46.506;6.674;2023-04-29T11:18:28;97080.06;;;20.46;64.07
71917;BME280;59793;46.506;6.674;2023-04-29T11:23:40;97085.84;;;20.71;63.76
71917;BME280;59793;46.506;6.674;2023-04-29T11:26:06;97072.78;;;20.73;62.45
71917;BME280;59793;46.506;6.674;2023-04-29T11:28:32;97053.88;;;20.61;62.06
71917;BME280;59793;46.506;6.674;2023-04-29T11:30:58;97065.94;;;20.72;61.60
71917;BME280;59793;46.506;6.674;2023-04-29T11:33:24;97073.44;;;20.58;62.15
71917;BME280;59793;46.506;6.674;2023-04-29T11:35:52;97059.50;;;20.66;62.48
71917;BME280;59793;46.506;6.674;2023-04-29T11:38:25;97073.06;;;20.56;62.05
71917;BME280;59793;46.506;6.674;2023-04-29T11:40:51;97071.94;;;20.26;63.18
71917;BME280;59793;46.506;6.674;2023-04-29T11:43:17;97077.41;;;20.19;62.46
71917;BME280;59793;46.506;6.674;2023-04-29T11:45:46;97072.19;;;20.08;62.94
71917;BME280;59793;46.506;6.674;2023-04-29T11:48:22;97073.84;;;19.98;64.37
71917;BME280;59793;46.506;6.674;2023-04-29T11:50:56;97069.28;;;19.95;64.78
71917;BME280;59793;46.506;6.674;2023-04-29T11:53:24;97056.13;;;19.77;64.98
71917;BME280;59793;46.506;6.674;2023-04-29T11:55:54;97069.66;;;19.97;63.27
71917;BME280;59793;46.506;6.674;2023-04-29T11:58:21;97078.44;;;19.98;64.38
71917;BME280;59793;46.506;6.674;2023-04-29T12:00:47;97063.59;;;19.93;64.47
71917;BME280;59793;46.506;6.674;2023-04-29T12:03:13;97072.47;;;19.87;64.26
71917;BME280;59793;46.506;6.674;2023-04-29T12:05:45;97023.41;;;19.70;63.46
71917;BME280;59793;46.506;6.674;2023-04-29T12:08:11;97054.28;;;20.32;63.25
71917;BME280;59793;46.506;6.674;2023-04-29T12:10:36;97056.75;;;20.46;62.90
71917;BME280;59793;46.506;6.674;2023-04-29T12:13:02;97060.69;;;20.89;61.84
71917;BME280;59793;46.506;6.674;2023-04-29T12:15:29;97059.06;;;20.71;61.46
71917;BME280;59793;46.506;6.674;2023-04-29T12:17:55;97054.22;;;20.86;61.71
71917;BME280;59793;46.506;6.674;2023-04-29T12:20:20;97037.59;;;20.75;60.70
71917;BME280;59793;46.506;6.674;2023-04-29T12:22:46;97047.56;;;20.94;61.50
71917;BME280;59793;46.506;6.674;2023-04-29T12:25:11;97003.22;;;20.93;59.69
71917;BME280;59793;46.506;6.674;2023-04-29T12:27:39;97056.28;;;21.22;61.02
71917;BME280;59793;46.506;6.674;2023-04-29T12:30:07;97062.09;;;21.40;59.58
71917;BME280;59793;46.506;6.674;2023-04-29T12:32:33;97051.03;;;20.44;62.18
71917;BME280;59793;46.506;6.674;2023-04-29T12:34:59;97051.38;;;20.73;60.69
71917;BME280;59793;46.506;6.674;2023-04-29T12:37:24;97074.53;;;20.60;61.40
71917;BME280;59793;46.506;6.674;2023-04-29T12:39:50;97059.00;;;20.75;61.88
71917;BME280;59793;46.506;6.674;2023-04-29T12:42:16;97062.94;;;20.67;62.06
71917;BME280;59793;46.506;6.674;2023-04-29T12:44:48;97061.69;;;20.75;62.91
71917;BME280;59793;46.506;6.674;2023-04-29T12:47:14;97062.97;;;20.90;61.13
71917;BME280;59793;46.506;6.674;2023-04-29T12:49:41;97055.13;;;19.98;63.36
71917;BME280;59793;46.506;6.674;2023-04-29T12:52:08;97060.75;;;20.08;63.18
71917;BME280;59793;46.506;6.674;2023-04-29T12:54:35;97046.28;;;20.01;62.94
71917;BME280;59793;46.506;6.674;2023-04-29T12:57:01;97069.78;;;19.52;64.96
71917;BME280;59793;46.506;6.674;2023-04-29T12:59:27;97071.69;;;19.14;65.93
71917;BME280;59793;46.506;6.674;2023-04-29T13:01:52;97053.59;;;18.91;67.39
71917;BME280;59793;46.506;6.674;2023-04-29T13:04:18;97053.41;;;19.13;66.67
71917;BME280;59793;46.506;6.674;2023-04-29T13:06:43;97064.81;;;19.17;67.02
71917;BME280;59793;46.506;6.674;2023-04-29T13:09:08;97053.47;;;19.05;67.34
71917;BME280;59793;46.506;6.674;2023-04-29T13:11:39;97065.09;;;19.26;67.01
71917;BME280;59793;46.506;6.674;2023-04-29T13:14:05;97057.19;;;19.11;65.20
71917;BME280;59793;46.506;6.674;2023-04-29T13:16:34;97061.34;;;18.75;67.04
71917;BME280;59793;46.506;6.674;2023-04-29T13:19:02;97065.66;;;19.06;67.05
71917;BME280;59793;46.506;6.674;2023-04-29T13:21:27;97055.25;;;19.53;64.81
71917;BME280;59793;46.506;6.674;2023-04-29T13:23:53;97067.38;;;19.65;63.85
71917;BME280;59793;46.506;6.674;2023-04-29T13:26:19;97034.00;;;20.08;61.49
71917;BME280;59793;46.506;6.674;2023-04-29T13:28:45;97051.88;;;20.14;61.01
71917;BME280;59793;46.506;6.674;2023-04-29T13:31:10;97030.50;;;20.11;61.91